Time;durP1;ratioP1;P1;durP2;ratioP2;P2;SDS_P1;SDS_P2;PMS_P1;PMS_P2;Temp;Humidity;BMP_temperature;BMP_pressure;BME280_temperature;BME280_humidity;BME280_pressure;Samples;Min_cycle;Max_cycle;Signal;HPM_P1;HPM_P2
2023/04/19 03:02:27;;;;;;;21.50;19.40;;;9.70;99.90;;;;;;5027656;23;20241;-76
2023/04/19 03:04:53;;;;;;;28.07;25.77;;;9.60;99.90;;;;;;4953643;29;20182;-76
2023/04/19 03:07:18;;;;;;;31.93;29.37;;;9.60;99.90;;;;;;4952790;28;20321;-76
2023/04/19 03:09:44;;;;;;;28.30;25.60;;;9.60;99.90;;;;;;4952898;28;20189;-76
2023/04/19 03:12:10;;;;;;;35.93;33.27;;;9.60;99.90;;;;;;4937901;29;20542;-76
2023/04/19 03:14:36;;;;;;;40.43;37.47;;;9.60;99.90;;;;;;4933958;29;20186;-78
2023/04/19 03:17:02;;;;;;;45.23;41.83;;;9.50;99.90;;;;;;4932912;28;20187;-77
2023/04/19 03:19:28;;;;;;;47.90;44.37;;;9.40;99.90;;;;;;4933088;29;20218;-77
2023/04/19 03:21:54;;;;;;;39.67;36.73;;;9.40;99.90;;;;;;4933019;29;20201;-77
2023/04/19 03:24:27;;;;;;;41.60;38.53;;;9.30;99.90;;;;;;4935560;29;20187;-77
2023/04/19 03:26:54;;;;;;;34.27;31.37;;;9.30;99.90;;;;;;4935032;29;20313;-77
2023/04/19 03:29:20;;;;;;;20.00;17.90;;;9.20;99.90;;;;;;4936177;29;20179;-77
2023/04/19 03:31:47;;;;;;;18.13;14.37;;;9.10;99.90;;;;;;4935559;29;20553;-77
2023/04/19 03:34:13;;;;;;;20.20;18.10;;;9.00;99.90;;;;;;4935251;29;20191;-77
2023/04/19 03:36:39;;;;;;;27.00;24.70;;;8.90;99.90;;;;;;4934399;29;20592;-77
2023/04/19 03:39:05;;;;;;;37.97;35.20;;;8.80;99.90;;;;;;4932504;29;20183;-77
2023/04/19 03:41:31;;;;;;;21.60;19.50;;;8.70;99.90;;;;;;4932652;29;20567;-77
2023/04/19 03:43:57;;;;;;;19.10;16.23;;;8.60;99.90;;;;;;4932532;29;20318;-77
2023/04/19 03:46:23;;;;;;;33.80;30.93;;;8.60;99.90;;;;;;4932166;29;20214;-77
2023/04/19 03:48:50;;;;;;;58.80;54.50;;;8.60;99.90;;;;;;4934491;29;20183;-77
2023/04/19 03:51:16;;;;;;;28.67;26.27;;;8.50;99.90;;;;;;4934892;29;20202;-77
2023/04/19 03:53:42;;;;;;;23.23;17.53;;;8.50;99.90;;;;;;4937041;29;20191;-77
2023/04/19 03:56:07;;;;;;;21.57;19.30;;;8.50;99.90;;;;;;4936754;29;20535;-77
2023/04/19 03:58:33;;;;;;;22.83;20.83;;;8.50;99.90;;;;;;4935437;29;20566;-77
2023/04/19 04:01:00;;;;;;;35.33;32.53;;;8.40;99.90;;;;;;4936595;28;20214;-77
2023/04/19 04:03:26;;;;;;;34.97;31.87;;;8.40;99.90;;;;;;4937644;29;20179;-77
2023/04/19 04:05:52;;;;;;;21.13;19.03;;;8.40;99.90;;;;;;4936606;29;20654;-77
2023/04/19 04:08:18;;;;;;;25.53;23.43;;;8.40;99.90;;;;;;4934945;29;20377;-76
2023/04/19 04:10:43;;;;;;;46.03;42.90;;;8.40;99.90;;;;;;4935358;29;20210;-77
2023/04/19 04:13:09;;;;;;;32.17;29.37;;;8.40;99.90;;;;;;4937301;29;20554;-76
2023/04/19 04:15:35;;;;;;;25.23;22.70;;;8.40;99.90;;;;;;4936767;29;20186;-77
2023/04/19 04:18:01;;;;;;;22.33;19.97;;;8.40;99.90;;;;;;4935268;29;20184;-77
2023/04/19 04:20:27;;;;;;;47.97;44.60;;;8.40;99.90;;;;;;4932639;29;20582;-76
2023/04/19 04:22:52;;;;;;;38.90;35.73;;;8.40;99.90;;;;;;4934876;29;20197;-76
2023/04/19 04:25:19;;;;;;;33.47;30.50;;;8.30;99.90;;;;;;4935718;29;20186;-75
2023/04/19 04:27:45;;;;;;;42.87;39.63;;;8.30;99.90;;;;;;4935542;28;20220;-77
2023/04/19 04:30:11;;;;;;;35.87;32.80;;;8.30;99.90;;;;;;4934779;29;20273;-76
2023/04/19 04:32:37;;;;;;;29.03;26.23;;;8.20;99.90;;;;;;4929803;29;20739;-76
2023/04/19 04:35:04;;;;;;;20.60;17.80;;;8.20;99.90;;;;;;4930061;29;20202;-75
2023/04/19 04:37:33;;;;;;;22.67;19.23;;;8.20;99.90;;;;;;4933656;29;20205;-75
2023/04/19 04:40:00;;;;;;;22.73;20.53;;;8.20;99.90;;;;;;4934641;29;20193;-75
2023/04/19 04:42:26;;;;;;;22.07;19.83;;;8.20;99.90;;;;;;4935379;29;20671;-75
2023/04/19 04:44:56;;;;;;;20.40;17.47;;;8.30;99.90;;;;;;4933853;29;20277;-75
2023/04/19 04:47:23;;;;;;;19.03;16.67;;;8.30;99.90;;;;;;4933953;29;20567;-75
2023/04/19 04:49:48;;;;;;;27.13;24.83;;;8.40;99.90;;;;;;4935592;29;20210;-74
2023/04/19 04:52:16;;;;;;;20.37;16.63;;;8.50;99.90;;;;;;4934733;29;20295;-75
2023/04/19 04:54:42;;;;;;;17.13;15.07;;;8.70;99.90;;;;;;4934099;29;20185;-76
2023/04/19 04:57:08;;;;;;;19.47;17.50;;;8.80;99.90;;;;;;4933466;29;20597;-76
2023/04/19 04:59:33;;;;;;;25.20;22.80;;;8.90;99.90;;;;;;4935241;29;20183;-76
2023/04/19 05:01:59;;;;;;;22.77;20.47;;;9.00;99.90;;;;;;4935218;29;20233;-76
2023/04/19 05:04:25;;;;;;;21.03;18.67;;;9.10;99.90;;;;;;4935347;29;20193;-76
2023/04/19 05:06:51;;;;;;;25.47;22.87;;;9.30;99.90;;;;;;4934730;29;20305;-77
2023/04/19 05:09:17;;;;;;;19.13;17.33;;;9.40;99.90;;;;;;4934971;29;20210;-76
2023/04/19 05:11:42;;;;;;;17.83;15.93;;;9.50;99.90;;;;;;4933381;29;20214;-76
2023/04/19 05:14:08;;;;;;;21.50;19.37;;;9.50;99.90;;;;;;4933608;29;20182;-76
2023/04/19 05:16:34;;;;;;;27.77;25.27;;;9.50;99.90;;;;;;4933857;29;20273;-76
2023/04/19 05:18:59;;;;;;;33.40;30.53;;;9.50;99.90;;;;;;4933477;29;20599;-75
2023/04/19 05:21:25;;;;;;;67.00;62.37;;;9.70;99.90;;;;;;4934420;29;20306;-74
2023/04/19 05:23:52;;;;;;;28.07;25.73;;;9.90;99.90;;;;;;4935091;29;20187;-73
2023/04/19 05:26:19;;;;;;;15.83;13.37;;;10.00;99.90;;;;;;4926038;29;20202;-74
2023/04/19 05:28:45;;;;;;;16.00;13.70;;;10.10;99.90;;;;;;4933325;29;20666;-74
2023/04/19 05:31:11;;;;;;;20.57;18.77;;;10.20;99.90;;;;;;4933666;29;20301;-74
2023/04/19 05:33:37;;;;;;;24.27;22.17;;;10.10;99.90;;;;;;4934754;29;20265;-74
2023/04/19 05:36:03;;;;;;;25.23;22.90;;;10.10;99.90;;;;;;4934555;29;20641;-74
2023/04/19 05:38:29;;;;;;;15.47;13.33;;;10.20;99.90;;;;;;4934472;29;20185;-74
2023/04/19 05:40:55;;;;;;;18.10;15.90;;;10.10;99.90;;;;;;4934389;29;20202;-74
2023/04/19 05:43:20;;;;;;;21.57;19.67;;;10.10;99.90;;;;;;4934795;29;20661;-74
2023/04/19 05:45:46;;;;;;;18.13;16.40;;;10.20;99.90;;;;;;4933385;29;20186;-73
2023/04/19 05:48:12;;;;;;;16.97;15.27;;;10.20;99.90;;;;;;4933003;29;20217;-74
2023/04/19 05:50:38;;;;;;;17.67;15.03;;;10.30;99.90;;;;;;4934082;29;20289;-74
2023/04/19 05:53:04;;;;;;;15.30;13.63;;;10.40;99.90;;;;;;4934594;29;20670;-74
2023/04/19 05:55:30;;;;;;;15.63;13.90;;;10.40;99.90;;;;;;4934236;29;20187;-74
2023/04/19 05:57:57;;;;;;;17.00;15.27;;;10.40;99.90;;;;;;4933738;29;20278;-74
2023/04/19 06:00:23;;;;;;;19.40;17.53;;;10.40;99.90;;;;;;4934368;29;20198;-73
2023/04/19 06:02:49;;;;;;;32.07;29.73;;;10.50;99.90;;;;;;4934309;29;20182;-73
2023/04/19 06:05:15;;;;;;;47.00;43.80;;;10.60;99.90;;;;;;4932878;29;20637;-73
2023/04/19 06:07:40;;;;;;;54.40;51.07;;;10.70;99.90;;;;;;4932582;29;20237;-74
2023/04/19 06:10:07;;;;;;;51.67;48.13;;;10.80;99.90;;;;;;4933933;29;20643;-77
2023/04/19 06:12:32;;;;;;;40.27;37.47;;;11.00;99.90;;;;;;4934202;29;20210;-77
2023/04/19 06:14:58;;;;;;;23.87;21.90;;;11.10;99.90;;;;;;4936122;29;20265;-77
2023/04/19 06:17:24;;;;;;;18.77;16.87;;;11.20;99.90;;;;;;4933563;29;20643;-76
2023/04/19 06:19:53;;;;;;;17.43;15.83;;;11.20;99.90;;;;;;4934461;29;20546;-76
2023/04/19 06:22:20;;;;;;;16.87;15.07;;;11.30;99.90;;;;;;4935112;29;20321;-77
2023/04/19 06:24:46;;;;;;;14.60;12.83;;;11.30;99.90;;;;;;4937194;29;20186;-77
2023/04/19 06:27:14;;;;;;;15.43;12.33;;;11.40;99.90;;;;;;4939773;29;20234;-76
2023/04/19 06:29:40;;;;;;;12.00;10.33;;;11.30;99.90;;;;;;4940248;29;20558;-76
2023/04/19 06:32:06;;;;;;;15.93;10.77;;;11.20;99.90;;;;;;4940350;29;20206;-76
2023/04/19 06:34:32;;;;;;;13.30;11.13;;;11.10;99.90;;;;;;4940458;29;20188;-76
2023/04/19 06:36:58;;;;;;;15.67;11.93;;;11.10;99.90;;;;;;4937572;29;20182;-77
2023/04/19 06:39:24;;;;;;;11.70;10.50;;;11.10;99.90;;;;;;4933800;29;20347;-76
2023/04/19 06:41:49;;;;;;;13.50;10.90;;;11.10;99.90;;;;;;4934686;29;20202;-76
2023/04/19 06:44:15;;;;;;;10.90;9.77;;;11.20;99.90;;;;;;4933098;29;20213;-77
2023/04/19 06:46:41;;;;;;;12.23;10.83;;;11.20;99.90;;;;;;4933351;29;20682;-77
2023/04/19 06:49:06;;;;;;;12.70;10.80;;;11.20;99.90;;;;;;4932917;29;20233;-77
2023/04/19 06:51:32;;;;;;;12.50;11.20;;;11.20;99.90;;;;;;4933468;29;20633;-77
2023/04/19 06:53:58;;;;;;;12.73;11.40;;;11.40;99.90;;;;;;4933302;29;20208;-76
2023/04/19 06:56:43;;;;;;;13.93;12.73;;;11.50;99.90;;;;;;4934262;29;20705;-76
2023/04/19 06:59:10;;;;;;;15.43;13.80;;;11.60;99.90;;;;;;4935056;29;20557;-77
2023/04/19 07:01:35;;;;;;;14.87;13.37;;;11.80;99.90;;;;;;4934877;29;20641;-77
2023/04/19 07:04:01;;;;;;;12.47;11.13;;;11.90;99.90;;;;;;4933659;29;20285;-76
2023/04/19 07:06:28;;;;;;;12.27;10.97;;;12.10;99.90;;;;;;4932995;29;20228;-77
2023/04/19 07:08:54;;;;;;;12.77;11.47;;;12.30;99.90;;;;;;4934291;29;20183;-77
2023/04/19 07:11:20;;;;;;;15.30;13.90;;;12.50;99.90;;;;;;4933658;29;20233;-77
2023/04/19 07:13:45;;;;;;;13.90;12.33;;;12.80;99.90;;;;;;4934425;29;20182;-77
2023/04/19 07:16:13;;;;;;;14.83;13.63;;;13.10;99.90;;;;;;4935055;29;20185;-77
2023/04/19 07:18:39;;;;;;;18.33;16.90;;;13.30;99.90;;;;;;4932622;29;20259;-76
2023/04/19 07:21:05;;;;;;;15.93;14.57;;;13.50;99.90;;;;;;4933605;29;20358;-77
2023/04/19 07:23:31;;;;;;;15.87;14.47;;;13.40;99.90;;;;;;4934655;29;20218;-77
2023/04/19 07:25:56;;;;;;;17.93;16.53;;;13.30;99.90;;;;;;4935719;29;20178;-78
2023/04/19 07:28:22;;;;;;;19.83;18.20;;;13.40;99.90;;;;;;4937846;29;20252;-76
2023/04/19 07:30:48;;;;;;;30.03;27.90;;;13.70;99.90;;;;;;4936466;29;20204;-76
2023/04/19 07:33:14;;;;;;;52.53;49.50;;;13.80;99.90;;;;;;4938763;29;20178;-76
2023/04/19 07:35:40;;;;;;;49.33;46.30;;;14.40;99.90;;;;;;4944607;29;20221;-76
2023/04/19 07:38:06;;;;;;;29.33;27.27;;;14.70;99.90;;;;;;4942765;29;20190;-76
2023/04/19 07:40:32;;;;;;;21.53;19.80;;;14.70;99.90;;;;;;4938783;29;20631;-76
2023/04/19 07:42:57;;;;;;;16.07;14.87;;;14.60;99.90;;;;;;4936371;29;20217;-76
2023/04/19 07:45:23;;;;;;;22.33;20.60;;;14.40;99.90;;;;;;4938496;29;20277;-77
2023/04/19 07:47:49;;;;;;;35.13;33.00;;;14.00;99.90;;;;;;4938257;29;20214;-77
2023/04/19 07:50:15;;;;;;;43.90;41.13;;;13.50;99.90;;;;;;4937523;29;20179;-77
2023/04/19 07:52:41;;;;;;;60.63;56.93;;;13.20;99.90;;;;;;4936309;29;20179;-76
2023/04/19 07:55:07;;;;;;;59.47;55.97;;;13.10;99.90;;;;;;4937512;29;20218;-77
2023/04/19 07:57:34;;;;;;;55.23;52.00;;;13.10;99.90;;;;;;4938504;29;20190;-78
2023/04/19 08:00:00;;;;;;;52.73;49.60;;;13.10;99.90;;;;;;4939021;29;20183;-77
2023/04/19 08:02:27;;;;;;;52.03;48.80;;;13.10;99.90;;;;;;4938870;29;20214;-76
2023/04/19 08:04:53;;;;;;;51.83;48.67;;;13.20;99.90;;;;;;4935935;29;20335;-77
2023/04/19 08:07:19;;;;;;;52.93;49.87;;;13.20;99.90;;;;;;4935482;29;20306;-76
2023/04/19 08:09:44;;;;;;;49.27;46.17;;;13.10;99.90;;;;;;4936062;29;20261;-76
2023/04/19 08:12:10;;;;;;;44.57;41.73;;;13.00;99.90;;;;;;4937069;29;20206;-76
2023/04/19 08:14:38;;;;;;;46.87;43.97;;;13.10;99.90;;;;;;4938451;29;20266;-77
2023/04/19 08:17:04;;;;;;;46.03;43.13;;;13.10;99.90;;;;;;4938150;29;20686;-77
2023/04/19 08:19:30;;;;;;;55.40;51.50;;;13.20;99.90;;;;;;4936970;29;20284;-78
2023/04/19 08:21:56;;;;;;;53.07;49.97;;;13.40;99.90;;;;;;4937830;29;20214;-78
2023/04/19 08:24:22;;;;;;;54.07;50.77;;;13.20;99.90;;;;;;4935917;29;20540;-77
2023/04/19 08:26:52;;;;;;;57.33;53.70;;;13.10;99.90;;;;;;4935339;29;20210;-76
2023/04/19 08:29:19;;;;;;;52.47;49.37;;;13.10;99.90;;;;;;4935633;29;20238;-77
2023/04/19 08:31:45;;;;;;;45.70;42.63;;;12.90;99.90;;;;;;4935595;29;20265;-77
2023/04/19 08:34:11;;;;;;;44.53;41.50;;;13.00;99.90;;;;;;4936633;29;20198;-77
2023/04/19 08:36:37;;;;;;;51.80;48.80;;;13.20;99.90;;;;;;4935593;29;20207;-77
2023/04/19 08:39:03;;;;;;;50.57;47.57;;;13.30;99.90;;;;;;4936330;29;20198;-78
2023/04/19 08:41:33;;;;;;;48.40;45.40;;;13.40;99.90;;;;;;4935705;29;20464;-77
2023/04/19 08:44:00;;;;;;;49.97;46.97;;;13.30;99.90;;;;;;4936177;29;20674;-77
2023/04/19 08:46:26;;;;;;;45.87;43.07;;;13.30;99.90;;;;;;4937054;29;20749;-76
2023/04/19 08:48:53;;;;;;;41.93;39.43;;;13.70;99.90;;;;;;4938836;29;20217;-78
2023/04/19 08:51:19;;;;;;;39.03;36.53;;;14.00;99.90;;;;;;4938513;29;20280;-78
2023/04/19 08:53:48;;;;;;;22.33;20.73;;;14.30;99.90;;;;;;4937626;29;20529;-77
2023/04/19 08:56:14;;;;;;;16.40;15.13;;;14.60;99.90;;;;;;4939185;29;20566;-78
2023/04/19 08:58:40;;;;;;;11.33;10.07;;;14.60;99.90;;;;;;4938280;29;20198;-77
2023/04/19 09:01:07;;;;;;;10.60;9.60;;;14.60;99.90;;;;;;4938018;29;20225;-77
2023/04/19 09:03:33;;;;;;;11.20;10.10;;;14.60;99.90;;;;;;4938559;29;20303;-77
2023/04/19 09:06:02;;;;;;;10.43;9.53;;;14.80;99.90;;;;;;4938280;29;20178;-78
2023/04/19 09:08:30;;;;;;;9.63;8.60;;;14.90;99.90;;;;;;4935200;29;20225;-77
2023/04/19 09:10:58;;;;;;;11.27;8.67;;;15.00;99.90;;;;;;4937611;29;20558;-77
2023/04/19 09:13:25;;;;;;;11.57;8.47;;;15.00;99.90;;;;;;4936208;29;20678;-78
2023/04/19 09:15:52;;;;;;;9.73;8.40;;;14.90;99.90;;;;;;4966274;23;20280;-77
2023/04/19 09:18:18;;;;;;;10.27;9.27;;;14.80;99.90;;;;;;4953694;28;20189;-78
2023/04/19 09:20:45;;;;;;;11.30;10.17;;;14.90;99.90;;;;;;4954625;28;20573;-78
2023/04/19 09:23:20;;;;;;;9.60;8.70;;;15.10;99.90;;;;;;4954408;28;20197;-77
2023/04/19 09:25:59;;;;;;;11.57;9.50;;;15.10;99.90;;;;;;4953173;28;20232;-77
2023/04/19 09:28:25;;;;;;;10.60;9.57;;;15.00;99.90;;;;;;4954514;28;20213;-78
2023/04/19 09:30:51;;;;;;;11.37;10.27;;;14.80;99.90;;;;;;4953119;28;20264;-77
2023/04/19 09:33:38;;;;;;;10.23;9.33;;;14.80;99.90;;;;;;4954169;28;20273;-78
2023/04/19 09:36:06;;;;;;;11.17;10.07;;;14.80;99.90;;;;;;4938015;29;20206;-76
2023/04/19 09:38:50;;;;;;;10.60;9.50;;;14.70;99.90;;;;;;4934717;28;20947;-77
2023/04/19 09:41:16;;;;;;;10.27;9.27;;;14.80;99.90;;;;;;4935007;29;20190;-76
2023/04/19 09:43:43;;;;;;;11.73;10.33;;;15.00;99.90;;;;;;4943228;28;20185;-74
2023/04/19 09:46:28;;;;;;;10.33;9.43;;;14.90;99.90;;;;;;4952376;28;20582;-76
2023/04/19 09:48:54;;;;;;;10.63;9.63;;;15.00;99.90;;;;;;4961536;28;20192;-76
2023/04/19 09:51:20;;;;;;;13.83;10.77;;;14.70;99.90;;;;;;4973330;28;20223;-77
2023/04/19 09:53:47;;;;;;;11.97;10.87;;;14.70;99.90;;;;;;4968927;28;20186;-76
2023/04/19 09:56:13;;;;;;;11.50;10.30;;;14.90;99.90;;;;;;4953255;28;20198;-75
2023/04/19 09:58:39;;;;;;;11.27;10.00;;;15.10;99.90;;;;;;4953164;28;20306;-73
2023/04/19 10:01:10;;;;;;;11.50;10.20;;;15.20;99.90;;;;;;4953574;28;20193;-74
2023/04/19 10:03:37;;;;;;;11.50;9.50;;;15.40;99.90;;;;;;4953042;28;20625;-74
2023/04/19 10:06:03;;;;;;;11.33;10.03;;;15.50;99.90;;;;;;4949566;28;20201;-76
2023/04/19 10:08:29;;;;;;;12.27;10.10;;;15.50;99.90;;;;;;4952688;28;20252;-75
2023/04/19 10:10:55;;;;;;;11.17;10.27;;;15.30;99.90;;;;;;4951290;28;20189;-76
2023/04/19 10:13:22;;;;;;;13.20;11.97;;;14.80;99.90;;;;;;4953149;28;20193;-74
2023/04/19 10:15:48;;;;;;;11.00;9.90;;;14.40;99.90;;;;;;4948952;29;20309;-75
2023/04/19 10:18:14;;;;;;;12.37;11.20;;;14.50;99.90;;;;;;4947464;28;20273;-75
2023/04/19 10:20:55;;;;;;;19.13;10.67;;;14.70;99.90;;;;;;4935878;29;20666;-76
2023/04/19 10:23:22;;;;;;;14.00;11.87;;;14.80;99.90;;;;;;4950945;28;20193;-74
2023/04/19 10:25:48;;;;;;;13.10;11.80;;;14.80;99.90;;;;;;4952382;28;20633;-75
2023/04/19 10:28:17;;;;;;;12.80;11.70;;;14.80;99.90;;;;;;4968404;28;20264;-74
2023/04/19 10:31:03;;;;;;;19.23;12.73;;;14.70;99.90;;;;;;4970636;28;20652;-74
2023/04/19 10:33:30;;;;;;;13.63;12.33;;;14.60;99.90;;;;;;4952335;28;20676;-75
2023/04/19 10:35:58;;;;;;;13.20;11.90;;;14.80;99.90;;;;;;4952453;28;20245;-75
2023/04/19 10:38:44;;;;;;;11.30;10.13;;;15.10;99.90;;;;;;4952507;28;20657;-74
2023/04/19 10:41:10;;;;;;;11.43;10.33;;;15.50;99.90;;;;;;4956299;28;20178;-74
2023/04/19 10:43:46;;;;;;;11.47;9.87;;;15.60;99.90;;;;;;4975328;28;20185;-75
2023/04/19 10:46:21;;;;;;;13.00;11.70;;;15.90;99.90;;;;;;4972340;28;20200;-75
2023/04/19 10:48:53;;;;;;;12.90;11.67;;;15.90;99.90;;;;;;4971558;28;20195;-75
2023/04/19 10:51:26;;;;;;;12.50;11.30;;;15.90;99.90;;;;;;4967021;28;20184;-76
2023/04/19 10:54:05;;;;;;;12.17;10.97;;;15.90;99.90;;;;;;4951129;28;20190;-74
2023/04/19 10:56:33;;;;;;;12.83;11.53;;;15.50;99.90;;;;;;4952358;28;20264;-75
2023/04/19 10:58:59;;;;;;;11.43;10.33;;;15.20;99.90;;;;;;4953559;28;20185;-79
2023/04/19 11:01:48;;;;;;;13.97;11.37;;;15.10;99.90;;;;;;4954067;28;20193;-78
2023/04/19 11:04:30;;;;;;;11.80;10.80;;;14.90;99.90;;;;;;4971882;28;20193;-77
2023/04/19 11:07:01;;;;;;;15.40;13.90;;;14.50;99.90;;;;;;4956130;28;20209;-77
2023/04/19 11:09:44;;;;;;;20.87;18.97;;;14.30;99.90;;;;;;4956692;28;20188;-79
2023/04/19 11:12:15;;;;;;;17.17;15.50;;;13.90;99.90;;;;;;4952870;28;20238;-77
2023/04/19 11:14:43;;;;;;;17.50;15.80;;;13.60;99.90;;;;;;4956712;28;20208;-76
2023/04/19 11:17:24;;;;;;;45.57;42.17;;;13.40;99.90;;;;;;4962662;28;20871;-76
2023/04/19 11:19:57;;;;;;;64.63;60.43;;;13.30;99.90;;;;;;4975307;28;20180;-76
2023/04/19 11:22:44;;;;;;;30.83;28.47;;;13.20;99.90;;;;;;4961401;28;20189;-73
2023/04/19 11:25:12;;;;;;;16.07;14.43;;;13.00;99.90;;;;;;4955544;28;20216;-73
2023/04/19 11:27:43;;;;;;;18.50;16.63;;;12.80;99.90;;;;;;4963828;28;20720;-73
2023/04/19 11:30:12;;;;;;;18.80;16.80;;;12.70;99.90;;;;;;4975005;28;20181;-71
2023/04/19 11:32:44;;;;;;;16.40;14.80;;;12.70;99.90;;;;;;4954284;28;20598;-74
2023/04/19 11:35:10;;;;;;;17.90;16.03;;;12.60;99.90;;;;;;4936693;28;20198;-74
2023/04/19 11:37:38;;;;;;;23.33;21.00;;;12.30;99.90;;;;;;4944151;28;20236;-75
2023/04/19 11:40:05;;;;;;;35.07;32.27;;;12.20;99.90;;;;;;4954325;28;20643;-74
2023/04/19 11:42:32;;;;;;;33.30;30.60;;;12.00;99.90;;;;;;4955364;28;20606;-74
2023/04/19 11:44:58;;;;;;;35.07;32.17;;;12.00;99.90;;;;;;4955506;28;20213;-74
2023/04/19 11:47:27;;;;;;;43.30;39.93;;;12.00;99.90;;;;;;4953771;28;20208;-74
2023/04/19 11:49:56;;;;;;;40.80;37.63;;;11.90;99.90;;;;;;4955529;28;20658;-75
2023/04/19 11:52:24;;;;;;;40.57;37.53;;;11.80;99.90;;;;;;4959267;28;20606;-75
2023/04/19 11:54:52;;;;;;;32.83;30.00;;;11.60;99.90;;;;;;4944778;28;20196;-74
2023/04/19 11:57:30;;;;;;;23.33;20.87;;;11.20;99.90;;;;;;4959504;28;20192;-73
2023/04/19 12:00:15;;;;;;;24.00;21.47;;;11.10;99.90;;;;;;4974642;28;20185;-74
2023/04/19 12:02:43;;;;;;;34.00;31.00;;;11.20;99.90;;;;;;4954435;28;20186;-74
2023/04/19 12:05:14;;;;;;;36.50;32.83;;;11.20;99.90;;;;;;4954817;28;20201;-73
2023/04/19 12:07:59;;;;;;;33.23;30.03;;;11.20;99.90;;;;;;4953853;29;20213;-74
2023/04/19 12:10:24;;;;;;;30.50;27.07;;;11.20;99.90;;;;;;4954876;28;20669;-74
2023/04/19 12:12:50;;;;;;;34.87;31.67;;;11.20;99.90;;;;;;4936055;28;20182;-74
2023/04/19 12:15:16;;;;;;;20.43;18.30;;;11.40;99.90;;;;;;4934710;29;20222;-74
2023/04/19 12:17:59;;;;;;;121.97;114.60;;;11.50;99.90;;;;;;4935640;29;20190;-73
2023/04/19 12:20:35;;;;;;;20.07;17.43;;;11.40;99.90;;;;;;4935994;29;20190;-74
2023/04/19 12:23:01;;;;;;;46.73;43.23;;;11.10;99.90;;;;;;4935735;28;20269;-74
2023/04/19 12:25:32;;;;;;;63.60;59.37;;;10.80;99.90;;;;;;4935770;29;20583;-74
2023/04/19 12:27:59;;;;;;;27.70;24.97;;;10.80;99.90;;;;;;4951797;28;20280;-74
2023/04/19 12:30:25;;;;;;;39.30;36.27;;;11.00;99.90;;;;;;4954668;29;20272;-75
2023/04/19 12:32:54;;;;;;;21.03;18.73;;;11.10;99.90;;;;;;4938809;29;20187;-74
2023/04/19 12:35:26;;;;;;;87.63;82.07;;;11.20;99.90;;;;;;4942643;29;20199;-74
2023/04/19 12:37:56;;;;;;;45.33;41.87;;;11.00;99.90;;;;;;4939522;29;20186;-74
2023/04/19 12:40:23;;;;;;;45.37;41.57;;;10.90;99.90;;;;;;4945368;29;20194;-74
2023/04/19 12:42:49;;;;;;;20.90;18.60;;;10.80;99.90;;;;;;4937445;28;20655;-74
2023/04/19 12:45:15;;;;;;;22.63;16.03;;;10.70;99.90;;;;;;4940030;28;20296;-74
2023/04/19 12:47:42;;;;;;;18.67;15.00;;;10.70;99.90;;;;;;4953144;29;20209;-74
2023/04/19 12:50:08;;;;;;;18.50;15.57;;;10.70;99.90;;;;;;4953675;28;20662;-74
2023/04/19 12:52:34;;;;;;;22.80;16.07;;;10.60;99.90;;;;;;4942677;28;20190;-74
2023/04/19 12:55:00;;;;;;;19.33;17.00;;;10.40;99.90;;;;;;4939708;28;20794;-74
2023/04/19 12:57:26;;;;;;;21.77;19.53;;;10.40;99.90;;;;;;5437343;23;20267;-74
2023/04/19 12:59:52;;;;;;;18.10;16.20;;;10.30;99.90;;;;;;4968631;28;20213;-75
2023/04/19 13:02:17;;;;;;;17.10;14.90;;;10.30;99.90;;;;;;4953182;28;20194;-75
2023/04/19 13:04:43;;;;;;;66.67;62.43;;;10.30;99.90;;;;;;4954867;28;20210;-74
2023/04/19 13:07:09;;;;;;;19.87;17.77;;;10.20;99.90;;;;;;4971826;28;20231;-75
2023/04/19 13:09:35;;;;;;;19.47;15.10;;;10.10;99.90;;;;;;4972142;28;20245;-77
2023/04/19 13:12:00;;;;;;;18.17;15.53;;;10.10;99.90;;;;;;4974967;23;20237;-72
2023/04/19 13:14:27;;;;;;;35.37;32.47;;;10.20;99.90;;;;;;4973480;28;20188;-72
2023/04/19 13:16:53;;;;;;;47.13;43.60;;;10.10;99.90;;;;;;4973895;28;20661;-70
2023/04/19 13:19:19;;;;;;;37.73;34.90;;;10.10;99.90;;;;;;4972338;28;20300;-71
2023/04/19 13:21:45;;;;;;;33.80;31.17;;;10.30;99.90;;;;;;4972837;28;20205;-71
2023/04/19 13:24:11;;;;;;;95.13;89.53;;;10.40;99.90;;;;;;4956733;28;20553;-70
2023/04/19 13:26:36;;;;;;;92.10;86.60;;;10.50;99.90;;;;;;4951403;29;20192;-71
2023/04/19 13:29:03;;;;;;;66.87;62.60;;;10.60;99.90;;;;;;4964321;28;20184;-70
2023/04/19 13:31:29;;;;;;;18.43;16.63;;;10.60;99.90;;;;;;4958400;28;20273;-70
2023/04/19 13:33:55;;;;;;;18.90;15.53;;;10.70;99.90;;;;;;4950780;29;20182;-69
2023/04/19 13:36:21;;;;;;;15.63;13.90;;;10.90;99.90;;;;;;4953350;28;20237;-70
2023/04/19 13:38:48;;;;;;;17.83;16.03;;;11.00;99.90;;;;;;4948028;28;20248;-71
2023/04/19 13:41:14;;;;;;;19.27;17.47;;;11.00;99.90;;;;;;4952149;28;20202;-69
2023/04/19 13:43:40;;;;;;;17.67;15.77;;;11.10;99.90;;;;;;5439406;23;20300;-71
2023/04/19 13:46:05;;;;;;;14.37;12.97;;;11.20;99.90;;;;;;4959474;28;20200;-71
2023/04/19 13:48:31;;;;;;;17.57;15.67;;;11.20;99.90;;;;;;4961873;28;20213;-72
2023/04/19 13:50:58;;;;;;;15.37;12.80;;;11.30;99.90;;;;;;4952889;28;20185;-71
2023/04/19 13:53:25;;;;;;;16.43;14.93;;;11.40;99.90;;;;;;4934731;29;20251;-72
2023/04/19 13:55:52;;;;;;;14.23;12.70;;;11.40;99.90;;;;;;4956812;23;20182;-76
2023/04/19 13:58:18;;;;;;;17.07;12.80;;;11.40;99.90;;;;;;4947165;29;20201;-75
2023/04/19 14:00:44;;;;;;;14.37;11.97;;;11.30;99.90;;;;;;4951431;29;20822;-75
2023/04/19 14:03:10;;;;;;;19.87;17.97;;;11.20;99.90;;;;;;4953497;29;20216;-75
2023/04/19 14:05:36;;;;;;;20.30;18.50;;;11.10;99.90;;;;;;4951703;29;20272;-75
2023/04/19 14:08:02;;;;;;;18.33;16.57;;;11.00;99.90;;;;;;4933339;29;20218;-74
2023/04/19 14:10:28;;;;;;;17.43;15.93;;;11.10;99.90;;;;;;4932353;29;20202;-73
2023/04/19 14:12:54;;;;;;;17.53;15.87;;;11.20;99.90;;;;;;4934248;29;20179;-73
2023/04/19 14:15:20;;;;;;;17.90;16.37;;;11.50;99.90;;;;;;4932274;29;20702;-73
2023/04/19 14:17:46;;;;;;;13.23;11.93;;;11.80;99.90;;;;;;4932059;29;20596;-73
2023/04/19 14:20:12;;;;;;;13.73;12.43;;;12.10;99.90;;;;;;4933896;29;20722;-73
2023/04/19 14:22:38;;;;;;;47.73;44.57;;;12.50;99.90;;;;;;4933899;29;20265;-74
2023/04/19 14:25:05;;;;;;;34.27;31.90;;;12.50;99.90;;;;;;4932318;29;20218;-73
2023/04/19 14:27:31;;;;;;;25.53;23.03;;;12.60;99.90;;;;;;4935013;29;20228;-73
2023/04/19 14:29:57;;;;;;;13.17;10.90;;;12.80;99.90;;;;;;4939394;29;20182;-73
2023/04/19 14:32:23;;;;;;;23.20;20.17;;;12.90;99.90;;;;;;4937420;29;20638;-73
2023/04/19 14:34:50;;;;;;;15.37;13.87;;;12.80;99.90;;;;;;4933232;29;20182;-74
2023/04/19 14:37:16;;;;;;;13.27;11.97;;;12.80;99.90;;;;;;4933253;29;20754;-73
2023/04/19 14:39:44;;;;;;;15.47;13.97;;;12.70;99.90;;;;;;4932064;29;20190;-73
2023/04/19 14:42:11;;;;;;;15.97;14.23;;;12.40;99.90;;;;;;4931111;29;20190;-73
2023/04/19 14:44:36;;;;;;;14.47;13.03;;;12.30;99.90;;;;;;4931301;29;20328;-73
2023/04/19 14:47:02;;;;;;;14.70;12.70;;;12.10;99.90;;;;;;4932657;29;20312;-73
2023/04/19 14:49:28;;;;;;;13.57;12.27;;;12.00;99.90;;;;;;4933439;29;20707;-75
2023/04/19 14:51:54;;;;;;;13.03;11.83;;;11.90;99.90;;;;;;4933563;29;20186;-75
2023/04/19 14:54:19;;;;;;;15.80;14.23;;;12.00;99.90;;;;;;4931966;29;20654;-72
2023/04/19 14:56:45;;;;;;;13.77;12.40;;;12.10;99.90;;;;;;4933387;29;20353;-75
2023/04/19 14:59:11;;;;;;;19.13;11.47;;;12.30;99.90;;;;;;4933198;29;20178;-75
2023/04/19 15:01:37;;;;;;;22.30;20.33;;;12.40;99.90;;;;;;4931167;29;20193;-73
2023/04/19 15:04:03;;;;;;;16.77;15.13;;;12.60;99.90;;;;;;4933158;29;20182;-73
2023/04/19 15:06:30;;;;;;;15.73;11.37;;;13.00;99.90;;;;;;4927941;29;20209;-73
2023/04/19 15:08:56;;;;;;;12.67;11.37;;;13.30;99.90;;;;;;4923841;29;20736;-74
2023/04/19 15:11:22;;;;;;;12.93;11.73;;;13.40;99.90;;;;;;4931166;29;20674;-72
2023/04/19 15:13:48;;;;;;;13.97;11.90;;;13.50;99.90;;;;;;4932992;29;20319;-73
2023/04/19 15:16:14;;;;;;;15.10;13.63;;;13.60;99.90;;;;;;4931166;29;20206;-73
2023/04/19 15:18:40;;;;;;;18.67;17.13;;;13.90;99.90;;;;;;4930552;29;20245;-73
2023/04/19 15:21:06;;;;;;;14.30;13.00;;;14.60;99.90;;;;;;4931634;29;20194;-73
2023/04/19 15:23:31;;;;;;;29.90;26.97;;;15.10;99.90;;;;;;4933150;29;20659;-73
2023/04/19 15:25:57;;;;;;;21.03;19.43;;;14.90;99.90;;;;;;4932230;29;20254;-73
2023/04/19 15:28:23;;;;;;;21.03;19.10;;;14.40;99.90;;;;;;4931332;29;20214;-73
2023/04/19 15:30:56;;;;;;;22.40;20.90;;;14.30;99.90;;;;;;4931992;29;20186;-73
2023/04/19 15:33:22;;;;;;;21.47;19.67;;;14.40;99.90;;;;;;4932971;29;20237;-73